Terminal Aerodrome Forecast
Issued by NWS Cleveland, OH

Home | Current Version | Previous Version | Graphics & Text | Print | Product List | Glossary On
Versions: 1 2 3 4 5 6 7 8 9 10 11 12 13 14 15 16 17 18 19 20 21 22 23 24 25 26 27 28 29 30 31 32
000
FTUS41 KCLE 291728
TAFCLE
TAF
KCLE 291728Z 2918/3024 22006KT P6SM BKN120
      TEMPO 2918/2919 -SHRA BKN035
     FM292100 20007KT P6SM SCT035
     FM300000 VRB03KT P6SM OVC035
     FM300400 VRB03KT P6SM SKC
     FM301400 29007KT P6SM SKC=

USA.gov is the U.S. government's official web portal to all federal, state and local government web resources and services.